Time;durP1;ratioP1;P1;durP2;ratioP2;P2;SDS_P1;SDS_P2;PMS_P1;PMS_P2;Temp;Humidity;BMP_temperature;BMP_pressure;BME280_temperature;BME280_humidity;BME280_pressure;Samples;Min_cycle;Max_cycle;Signal;HPM_P1;HPM_P2
2022/08/11 00:01:33;;;;;;;10.77;5.35;;;;;;;17.07;67.38;102219.19;5156101;27;20038;-78
2022/08/11 00:04:03;;;;;;;8.32;5.43;;;;;;;17.01;65.54;102209.16;5156057;27;20358;-77
2022/08/11 00:06:33;;;;;;;8.52;4.88;;;;;;;17.05;65.47;102215.84;5156111;27;20034;-75
2022/08/11 00:09:00;;;;;;;8.77;5.05;;;;;;;17.04;66.90;102225.47;5156016;27;20045;-77
2022/08/11 00:11:38;;;;;;;7.68;5.10;;;;;;;17.00;66.57;102216.16;5136898;27;20035;-77
2022/08/11 00:14:14;;;;;;;7.28;4.70;;;;;;;17.07;67.24;102230.47;5155389;27;20387;-76
2022/08/11 00:16:40;;;;;;;10.02;5.20;;;;;;;17.01;65.06;102216.97;5155785;27;20025;-76
2022/08/11 00:19:07;;;;;;;7.28;4.78;;;;;;;16.94;66.45;102215.75;5155657;27;20114;-77
2022/08/11 00:21:41;;;;;;;7.82;4.70;;;;;;;16.85;67.53;102218.03;5155783;27;20033;-77
2022/08/11 00:24:08;;;;;;;8.73;4.93;;;;;;;16.80;68.31;102221.88;5156030;27;20033;-77
2022/08/11 00:26:35;;;;;;;7.80;4.80;;;;;;;16.62;68.73;102208.28;5155822;27;20023;-77
2022/08/11 00:29:12;;;;;;;8.55;5.13;;;;;;;16.70;67.67;102215.59;5155564;27;20030;-77
2022/08/11 00:31:44;;;;;;;13.50;5.03;;;;;;;16.87;66.05;102225.75;5155613;27;20027;-77
2022/08/11 00:34:11;;;;;;;9.60;4.60;;;;;;;16.88;66.23;102215.22;5155304;27;20037;-77
2022/08/11 00:36:50;;;;;;;11.13;5.03;;;;;;;16.77;66.89;102214.28;5155264;27;20046;-78
2022/08/11 00:39:17;;;;;;;8.23;5.00;;;;;;;16.79;66.92;102215.00;5155446;27;20026;-78
2022/08/11 00:41:52;;;;;;;9.27;4.75;;;;;;;16.84;66.06;102229.41;5155316;27;20015;-79
2022/08/11 00:44:55;;;;;;;8.15;4.90;;;;;;;16.72;67.68;102226.81;5155016;27;20019;-76
2022/08/11 00:47:30;;;;;;;8.40;4.70;;;;;;;16.68;66.97;102223.53;5155226;27;20029;-79
2022/08/11 00:50:05;;;;;;;7.32;4.50;;;;;;;16.67;67.91;102224.44;5155185;27;20105;-78
2022/08/11 00:52:49;;;;;;;9.23;4.95;;;;;;;16.62;67.98;102218.72;5155375;27;20465;-78
2022/08/11 00:55:57;;;;;;;8.75;4.80;;;;;;;16.43;67.30;102184.38;5155065;27;20184;-78
2022/08/11 00:58:50;;;;;;;8.98;5.13;;;;;;;16.60;67.78;102220.56;5154918;27;20088;-78
2022/08/11 01:01:15;;;;;;;8.75;4.57;;;;;;;16.58;67.62;102218.06;5155027;27;20048;-78
2022/08/11 01:04:19;;;;;;;7.60;4.75;;;;;;;16.49;68.07;102218.66;5154798;27;20019;-78
2022/08/11 01:07:22;;;;;;;8.48;5.10;;;;;;;16.38;68.65;102218.53;5154865;27;20155;-77
2022/08/11 01:10:02;;;;;;;9.38;4.50;;;;;;;16.26;70.50;102217.56;5154930;27;20110;-78
2022/08/11 01:12:39;;;;;;;8.68;4.82;;;;;;;16.25;69.42;102218.50;5154772;27;20029;-77
2022/08/11 01:15:43;;;;;;;8.52;4.95;;;;;;;16.25;69.15;102222.91;5154452;27;20027;-77
2022/08/11 01:18:26;;;;;;;8.82;5.28;;;;;;;16.27;68.12;102214.03;5154609;27;20109;-77
2022/08/11 01:21:13;;;;;;;9.20;5.55;;;;;;;16.21;69.50;102217.03;5154819;27;20414;-77
2022/08/11 01:23:59;;;;;;;9.73;6.07;;;;;;;16.24;67.98;102223.84;5154720;27;20079;-78
2022/08/11 01:26:43;;;;;;;10.05;6.07;;;;;;;16.24;68.65;102226.44;5153877;27;20030;-77
2022/08/11 01:29:32;;;;;;;9.65;5.50;;;;;;;16.16;68.54;102210.44;5154417;27;20030;-78
2022/08/11 01:32:34;;;;;;;11.07;5.55;;;;;;;16.23;68.79;102237.81;5154549;27;20022;-78
2022/08/11 01:35:05;;;;;;;;;;;;;;;16.23;67.77;102225.59;5155101;27;20035;-77
2022/08/11 01:37:51;;;;;;;10.98;5.32;;;;;;;16.26;67.51;102229.78;5154317;27;19968;-78
2022/08/11 01:40:43;;;;;;;8.52;5.53;;;;;;;16.20;67.47;102204.09;5154525;27;20027;-77
2022/08/11 01:46:44;;;;;;;11.27;6.07;;;;;;;16.31;66.61;102212.88;5090840;28;20040;-77
2022/08/11 01:49:23;;;;;;;9.48;5.47;;;;;;;16.34;66.83;102209.25;5090536;28;20082;-77
2022/08/11 01:52:14;;;;;;;8.80;5.53;;;;;;;16.32;67.33;102203.28;5090523;28;20103;-76
2022/08/11 01:54:57;;;;;;;10.77;5.95;;;;;;;16.39;67.17;102214.16;5090582;28;20059;-77
2022/08/11 01:57:35;;;;;;;10.45;5.70;;;;;;;16.40;66.90;102221.88;5090539;28;20103;-79
2022/08/11 02:00:08;;;;;;;8.30;5.45;;;;;;;16.29;68.01;102219.13;5090333;28;20031;-76
2022/08/11 02:02:44;;;;;;;7.68;5.43;;;;;;;16.30;67.85;102223.41;5090349;28;20070;-78
2022/08/11 02:05:21;;;;;;;8.35;5.38;;;;;;;16.26;67.99;102222.78;5090403;28;20111;-77
2022/08/11 02:08:09;;;;;;;12.93;6.00;;;;;;;16.26;67.18;102219.34;5090227;28;20082;-77
2022/08/11 02:13:56;;;;;;;10.95;5.65;;;;;;;16.03;69.26;102211.25;5090348;28;20043;-78
2022/08/11 02:16:49;;;;;;;9.00;5.60;;;;;;;16.12;68.51;102224.59;5090252;28;20418;-78
2022/08/11 02:25:48;;;;;;;11.75;5.55;;;;;;;15.88;69.52;102234.81;5154424;27;20045;-78
2022/08/11 02:28:16;;;;;;;8.73;5.13;;;;;;;15.78;70.24;102230.19;5154092;27;20358;-78
2022/08/11 02:34:05;;;;;;;8.68;5.53;;;;;;;15.60;71.57;102226.13;5153780;27;20505;-78
2022/08/11 02:37:02;;;;;;;8.20;5.63;;;;;;;15.49;71.87;102215.50;5153973;27;20164;-78
2022/08/11 02:39:44;;;;;;;8.23;5.65;;;;;;;15.23;70.92;102183.25;5157801;27;20108;-79
2022/08/11 02:42:28;;;;;;;9.77;6.22;;;;;;;15.31;72.60;102207.03;5157678;27;20037;-79
2022/08/11 02:45:18;;;;;;;10.43;6.13;;;;;;;15.30;73.22;102214.94;5157695;27;20373;-77
2022/08/11 02:50:56;;;;;;;11.60;6.70;;;;;;;15.16;73.88;102208.81;5157852;27;20041;-76
2022/08/11 02:53:36;;;;;;;10.43;5.88;;;;;;;15.11;73.91;102199.59;5157406;27;20023;-77
2022/08/11 02:56:21;;;;;;;11.68;6.68;;;;;;;15.16;73.96;102211.44;5157695;27;20022;-77
2022/08/11 03:02:09;;;;;;;10.48;6.13;;;;;;;15.08;74.44;102215.41;5157454;27;20114;-76
2022/08/11 03:04:45;;;;;;;9.45;6.20;;;;;;;14.99;74.30;102208.16;5157456;27;20034;-77
2022/08/11 03:07:33;;;;;;;10.80;5.97;;;;;;;15.01;74.18;102222.75;5156960;27;20035;-77
2022/08/11 03:10:13;;;;;;;11.52;6.15;;;;;;;14.90;74.75;102217.34;5157174;27;20029;-77
2022/08/11 03:18:50;;;;;;;9.57;6.15;;;;;;;14.82;75.54;102219.53;5156969;27;20130;-79
2022/08/11 03:21:23;;;;;;;12.05;6.22;;;;;;;14.71;76.45;102212.38;5156823;27;20538;-77
2022/08/11 03:24:05;;;;;;;12.82;7.15;;;;;;;14.70;76.14;102215.91;5156934;27;20137;-77
2022/08/11 03:26:52;;;;;;;8.60;5.80;;;;;;;14.67;76.37;102215.25;5156989;27;20015;-76
2022/08/11 03:29:22;;;;;;;11.10;6.18;;;;;;;14.70;76.96;102220.28;5157005;27;20390;-77
2022/08/11 03:32:03;;;;;;;10.88;6.35;;;;;;;14.63;76.74;102223.22;5156663;27;20374;-77
2022/08/11 03:34:30;;;;;;;10.88;6.35;;;;;;;14.57;76.98;102218.38;5156620;27;20033;-77
2022/08/11 03:40:15;;;;;;;11.50;7.00;;;;;;;14.60;77.29;102223.41;5157072;27;20121;-77
2022/08/11 03:42:59;;;;;;;11.98;6.32;;;;;;;14.51;77.00;102216.13;5156526;27;20033;-76
2022/08/11 03:45:34;;;;;;;11.68;6.93;;;;;;;14.50;77.58;102205.81;5156419;27;20064;-76
2022/08/11 03:48:17;;;;;;;11.93;6.93;;;;;;;14.57;77.20;102215.78;5155998;27;20058;-75
2022/08/11 03:50:54;;;;;;;11.48;6.85;;;;;;;14.58;76.41;102222.66;5156126;27;20470;-76
2022/08/11 03:53:57;;;;;;;9.68;6.60;;;;;;;14.53;77.21;102222.06;5156535;27;20476;-77
2022/08/11 03:56:42;;;;;;;10.15;6.75;;;;;;;14.45;77.78;102216.47;5156141;27;20027;-77
2022/08/11 03:59:27;;;;;;;10.90;6.80;;;;;;;14.40;77.81;102218.47;5156210;27;20058;-76
2022/08/11 04:02:17;;;;;;;11.73;6.45;;;;;;;14.43;77.97;102218.28;5155905;27;20075;-76
2022/08/11 04:05:13;;;;;;;9.60;6.45;;;;;;;14.43;77.78;102213.09;5156167;27;20027;-77
2022/08/11 04:07:51;;;;;;;9.15;5.22;;;;;;;15.04;84.43;102206.94;5155992;27;20030;-77
2022/08/11 04:10:22;;;;;;;9.30;5.93;;;;;;;15.36;79.85;102207.63;5156062;27;20026;-84
2022/08/11 04:12:56;;;;;;;;;;;;;;;15.26;77.50;102208.28;5156286;27;20027;-81
2022/08/11 04:16:01;;;;;;;9.88;6.00;;;;;;;15.35;77.33;102202.50;5155809;27;20368;-81
2022/08/11 04:18:49;;;;;;;9.20;5.78;;;;;;;15.39;77.29;102202.22;5155979;27;20109;-82
2022/08/11 04:21:46;;;;;;;9.80;6.65;;;;;;;15.35;77.30;102205.94;5155741;27;20125;-86
2022/08/11 04:24:35;;;;;;;11.63;6.53;;;;;;;15.41;77.49;102202.09;5155978;27;20470;-80
2022/08/11 04:27:38;;;;;;;12.27;7.47;;;;;;;15.28;76.42;102206.41;5155730;27;20027;-83
2022/08/11 04:30:13;;;;;;;9.20;6.80;;;;;;;15.13;77.09;102175.16;5155616;27;20027;-85
2022/08/11 04:32:57;;;;;;;11.77;6.85;;;;;;;15.35;76.25;102207.72;5155350;27;20014;-81
2022/08/11 04:35:49;;;;;;;9.30;6.70;;;;;;;15.42;75.96;102198.56;5155230;27;20019;-82
2022/08/11 04:38:57;;;;;;;11.10;6.45;;;;;;;15.54;75.42;102207.41;5155250;27;20764;-81
2022/08/11 04:44:59;;;;;;;12.35;7.35;;;;;;;15.38;75.20;102210.13;5051546;28;20146;-78
2022/08/11 05:02:54;;;;;;;10.18;6.35;;;;;;;16.09;74.21;102212.59;5050940;28;20052;-85
2022/08/11 05:05:30;;;;;;;9.93;6.97;;;;;;;16.28;73.69;102207.88;5050709;28;20457;-81
2022/08/11 05:08:20;;;;;;;22.40;8.23;;;;;;;16.26;72.07;102214.13;5050953;28;20104;-84
2022/08/11 05:11:13;;;;;;;11.93;7.38;;;;;;;16.12;72.11;102209.78;5050890;28;20078;-80
2022/08/11 05:36:50;;;;;;;14.27;8.25;;;;;;;16.78;69.65;102218.53;5154406;27;20101;-77
2022/08/11 05:56:17;;;;;;;14.32;7.50;;;;;;;23.07;51.37;102201.94;5154499;27;20468;-75
2022/08/11 05:58:45;;;;;;;13.18;7.60;;;;;;;24.11;48.23;102207.72;5154199;27;20030;-75
2022/08/11 06:01:19;;;;;;;21.33;7.68;;;;;;;24.79;46.08;102206.09;5154228;27;20410;-76
2022/08/11 06:06:33;;;;;;;10.52;7.57;;;;;;;25.80;43.68;102195.63;5154350;27;20542;-75
2022/08/11 06:09:00;;;;;;;10.55;6.75;;;;;;;26.42;42.58;102214.53;5153994;27;20034;-76
2022/08/11 06:11:26;;;;;;;13.50;6.80;;;;;;;26.90;41.41;102204.00;5154078;27;20102;-76
2022/08/11 06:13:53;;;;;;;15.88;7.22;;;;;;;27.60;39.49;102206.69;5158316;27;20110;-76
2022/08/11 06:16:26;;;;;;;13.57;7.13;;;;;;;28.06;39.04;102214.69;5158330;27;20015;-76
2022/08/11 06:18:52;;;;;;;11.68;7.32;;;;;;;27.69;38.66;102217.09;5157771;27;20062;-76
2022/08/11 06:21:20;;;;;;;13.60;7.15;;;;;;;27.50;39.74;102206.06;5158121;27;20058;-76
2022/08/11 06:23:46;;;;;;;11.07;7.25;;;;;;;27.67;39.33;102211.16;5158038;27;20033;-75
2022/08/11 06:26:12;;;;;;;15.23;7.68;;;;;;;28.25;37.58;102201.75;5158009;27;20038;-75
2022/08/11 06:28:43;;;;;;;9.40;7.57;;;;;;;27.82;38.77;102218.34;5158308;27;20026;-75
2022/08/11 06:31:16;;;;;;;14.32;7.63;;;;;;;28.11;39.02;102210.50;5157886;27;20045;-76
2022/08/11 06:33:54;;;;;;;17.08;7.13;;;;;;;28.62;39.25;102212.56;5157674;27;20018;-76
2022/08/11 06:36:38;;;;;;;13.70;7.15;;;;;;;29.00;36.80;102206.16;5157723;27;20386;-75
2022/08/11 06:39:07;;;;;;;16.27;7.57;;;;;;;28.97;36.32;102206.53;5157815;27;20037;-75
2022/08/11 06:41:43;;;;;;;9.88;7.00;;;;;;;29.51;36.54;102208.88;5157688;27;20110;-75
2022/08/11 06:44:12;;;;;;;13.52;7.97;;;;;;;29.06;36.29;102215.25;5157900;27;20014;-75
2022/08/11 06:46:39;;;;;;;10.50;6.97;;;;;;;29.49;35.40;102212.72;5157836;27;20034;-75
2022/08/11 06:52:03;;;;;;;10.02;6.95;;;;;;;30.95;32.58;102215.59;5157761;27;20045;-75
2022/08/11 06:54:31;;;;;;;10.40;6.47;;;;;;;31.01;32.50;102214.81;5138727;27;20022;-76
2022/08/11 07:02:42;;;;;;;10.90;6.22;;;;;;;31.56;32.72;102212.97;5157584;27;20042;-76
2022/08/11 07:05:19;;;;;;;10.55;6.82;;;;;;;31.65;31.11;102222.41;5157053;27;20075;-76
2022/08/11 07:16:48;;;;;;;9.38;5.88;;;;;;;30.50;31.85;102222.28;5157653;27;20029;-77
2022/08/11 07:30:48;;;;;;;10.35;5.65;;;;;;;27.43;36.67;102200.63;5157093;27;20042;-79
2022/08/11 07:33:21;;;;;;;8.70;5.47;;;;;;;26.24;39.28;102221.78;5156825;27;20367;-77
2022/08/11 07:35:54;;;;;;;9.93;6.25;;;;;;;25.22;40.99;102177.91;5156564;27;20072;-77
2022/08/11 07:38:42;;;;;;;11.68;6.57;;;;;;;24.76;41.61;102218.78;5156682;27;20030;-78
2022/08/11 07:41:10;;;;;;;11.70;6.15;;;;;;;24.17;43.79;102221.13;5156993;27;20019;-77
2022/08/11 07:43:36;;;;;;;11.32;6.10;;;;;;;23.90;44.93;102219.41;5156770;27;20022;-77
2022/08/11 07:54:18;;;;;;;11.85;6.65;;;;;;;23.29;46.25;102193.63;5156653;27;20078;-77
2022/08/11 07:56:53;;;;;;;12.23;6.82;;;;;;;23.40;45.74;102222.47;5156589;27;20469;-77
2022/08/11 08:18:36;;;;;;;12.15;6.25;;;;;;;23.72;44.08;102221.19;5155941;27;20385;-77
2022/08/11 08:21:14;;;;;;;11.50;6.53;;;;;;;23.73;43.23;102220.22;5155905;27;20427;-77
2022/08/11 08:23:45;;;;;;;8.77;6.10;;;;;;;23.77;42.38;102224.19;5155972;27;20047;-77
2022/08/11 08:30:46;;;;;;;10.63;6.18;;;;;;;23.84;43.44;102222.63;5155937;27;19913;-77
2022/08/11 08:31:50;;;;;;;11.98;5.78;;;;;;;24.00;43.90;102220.16;5155502;27;20031;-77
2022/08/11 08:34:17;;;;;;;10.25;5.38;;;;;;;24.01;43.37;102200.72;5155780;27;20023;-78
2022/08/11 08:36:47;;;;;;;12.55;5.78;;;;;;;24.29;43.75;102213.81;5155114;27;20435;-78
2022/08/11 08:39:20;;;;;;;10.95;6.10;;;;;;;24.25;42.70;102193.97;5155567;27;20089;-77
2022/08/11 08:41:51;;;;;;;14.02;5.63;;;;;;;24.52;43.51;102208.91;5155397;27;20031;-77
2022/08/11 08:44:19;;;;;;;;;;;;;;;24.50;42.68;102214.34;5136429;27;20098;-77
2022/08/11 08:46:49;;;;;;;11.23;6.05;;;;;;;24.39;42.46;102190.00;5155337;27;20005;-76
2022/08/11 08:49:20;;;;;;;12.97;6.60;;;;;;;24.22;41.62;102189.81;5155443;27;20103;-78
2022/08/11 08:51:51;;;;;;;9.18;5.80;;;;;;;24.47;42.07;102213.78;5155385;27;20782;-77
2022/08/11 08:54:20;;;;;;;10.93;6.20;;;;;;;24.53;43.20;102214.03;5155217;27;20526;-77
2022/08/11 08:56:51;;;;;;;9.43;5.88;;;;;;;24.55;42.17;102213.84;5155131;27;20027;-77
2022/08/11 08:59:20;;;;;;;8.23;5.78;;;;;;;24.68;41.86;102210.81;5155208;27;20385;-77
2022/08/11 09:01:52;;;;;;;11.13;6.10;;;;;;;24.68;43.04;102200.22;5155218;27;20040;-77
2022/08/11 09:04:19;;;;;;;10.18;5.55;;;;;;;24.83;41.75;102203.97;5155103;27;20076;-77
2022/08/11 09:06:46;;;;;;;13.48;5.95;;;;;;;24.93;41.77;102202.03;5154930;27;20026;-76
2022/08/11 09:09:13;;;;;;;9.15;5.30;;;;;;;24.93;41.01;102209.13;5154975;27;20030;-76
2022/08/11 09:11:49;;;;;;;8.00;5.30;;;;;;;24.84;40.20;102197.69;5155018;27;20526;-77
2022/08/11 09:14:17;;;;;;;8.98;5.32;;;;;;;24.96;41.68;102214.94;5154918;27;20041;-77
2022/08/11 09:16:43;;;;;;;11.02;6.22;;;;;;;24.97;41.27;102207.81;5154790;27;20019;-78
2022/08/11 09:19:09;;;;;;;7.63;4.97;;;;;;;24.93;40.41;102193.28;5154892;27;20520;-78
2022/08/11 09:21:40;;;;;;;10.80;5.55;;;;;;;25.08;40.84;102203.16;5154232;27;20089;-79
2022/08/11 09:27:01;;;;;;;11.80;5.00;;;;;;;25.25;40.25;102185.53;5154136;27;20042;-74
2022/08/11 09:29:28;;;;;;;12.73;5.45;;;;;;;25.44;39.51;102202.94;5154895;27;20023;-78
2022/08/11 09:34:27;;;;;;;10.90;5.57;;;;;;;25.56;39.66;102199.00;5071015;28;20056;-76
2022/08/11 09:44:45;;;;;;;8.90;4.80;;;;;;;25.88;38.02;102190.34;5071417;28;20386;-77
2022/08/11 09:45:12;;;;;;;8.32;4.68;;;;;;;25.97;38.12;102189.34;5071268;28;20043;-74
2022/08/11 09:47:39;;;;;;;11.23;4.72;;;;;;;26.03;38.87;102191.31;5072121;28;20372;-77
2022/08/11 09:50:05;;;;;;;10.73;5.10;;;;;;;26.08;37.78;102198.78;5072720;28;20025;-74
2022/08/11 09:52:35;;;;;;;13.85;5.70;;;;;;;25.92;37.70;102174.94;5072303;28;20036;-77
2022/08/11 09:55:01;;;;;;;7.88;4.93;;;;;;;25.81;38.28;102152.28;5072495;28;20024;-78
2022/08/11 10:00:13;;;;;;;10.95;5.00;;;;;;;26.16;38.30;102172.31;5072737;28;20059;-76
2022/08/11 10:02:42;;;;;;;8.32;5.30;;;;;;;26.05;38.14;102156.75;5072521;28;20067;-81
2022/08/11 10:07:54;;;;;;;8.32;5.18;;;;;;;26.26;36.45;102170.31;5071923;28;20035;-79
2022/08/11 10:10:21;;;;;;;12.88;4.70;;;;;;;26.41;37.21;102167.84;5070123;28;20037;-78
2022/08/11 10:12:58;;;;;;;9.65;4.95;;;;;;;26.61;38.28;102173.59;5072311;28;20021;-79
2022/08/11 10:15:38;;;;;;;9.45;5.13;;;;;;;26.67;37.03;102172.09;5072452;28;20111;-79
2022/08/11 10:20:56;;;;;;;9.15;4.70;;;;;;;26.77;35.72;102162.97;5072550;28;20083;-81
2022/08/11 10:28:52;;;;;;;12.02;4.80;;;;;;;26.98;34.72;102161.56;5072313;28;20145;-79
2022/08/11 10:34:04;;;;;;;7.82;4.22;;;;;;;27.10;33.80;102155.72;5072022;28;20406;-78
2022/08/11 10:36:33;;;;;;;8.85;4.45;;;;;;;27.18;33.65;102156.69;5071982;28;20021;-81
2022/08/11 10:39:00;;;;;;;9.45;4.57;;;;;;;27.14;34.17;102153.56;5071640;28;20036;-77
2022/08/11 10:44:12;;;;;;;8.70;4.35;;;;;;;27.33;33.52;102152.28;5072169;28;20387;-78
2022/08/11 10:49:30;;;;;;;12.20;5.10;;;;;;;27.42;34.76;102140.63;5072212;28;20051;-78
2022/08/11 11:00:15;;;;;;;6.95;4.45;;;;;;;27.76;32.34;102144.75;5075831;28;20106;-78
2022/08/11 11:02:45;;;;;;;8.80;4.50;;;;;;;27.82;33.02;102149.31;5075276;28;20032;-78
2022/08/11 11:05:15;;;;;;;8.77;4.10;;;;;;;27.91;32.67;102148.25;5075579;28;20434;-78
2022/08/11 11:07:51;;;;;;;10.05;4.70;;;;;;;27.72;32.88;102112.41;5057356;28;20033;-77
2022/08/11 11:10:16;;;;;;;10.02;4.55;;;;;;;27.77;32.71;102127.81;5057046;28;20029;-78
2022/08/11 11:18:22;;;;;;;11.57;4.20;;;;;;;28.05;31.85;102130.72;5075054;28;20170;-78
2022/08/11 11:20:56;;;;;;;6.07;4.03;;;;;;;28.11;32.37;102130.00;5075083;28;20121;-78
2022/08/11 11:23:39;;;;;;;7.35;3.60;;;;;;;28.17;31.29;102129.28;5056964;28;20020;-78
2022/08/11 11:26:33;;;;;;;7.03;3.88;;;;;;;28.03;32.64;102122.94;5074970;28;20452;-79
2022/08/11 11:29:35;;;;;;;7.78;4.20;;;;;;;28.18;31.28;102133.59;5074874;28;20066;-79
2022/08/11 11:32:17;;;;;;;6.75;3.90;;;;;;;28.23;29.99;102124.06;5074989;28;20028;-78
2022/08/11 11:35:07;;;;;;;8.70;3.70;;;;;;;28.32;30.92;102126.66;5074859;28;20490;-80
2022/08/11 11:37:36;;;;;;;8.55;3.78;;;;;;;28.01;30.07;102088.56;5074843;28;20020;-78
2022/08/11 11:40:13;;;;;;;10.15;3.97;;;;;;;28.12;31.37;102100.63;5074715;28;20044;-79
2022/08/11 11:42:41;;;;;;;7.45;4.18;;;;;;;28.27;30.90;102120.03;5074918;28;20032;-79
2022/08/11 11:45:08;;;;;;;7.63;3.78;;;;;;;28.21;30.20;102115.44;5074015;28;20039;-80
2022/08/11 11:47:36;;;;;;;10.13;4.40;;;;;;;28.23;30.96;102117.94;5074683;28;20146;-77
2022/08/11 11:50:04;;;;;;;6.35;3.85;;;;;;;28.21;30.77;102107.47;5074399;28;20044;-78
2022/08/11 11:52:30;;;;;;;6.38;3.65;;;;;;;28.38;31.00;102108.16;5074520;28;20029;-78
2022/08/11 11:54:57;;;;;;;8.02;3.70;;;;;;;28.32;29.24;102090.31;5074403;28;20044;-79
2022/08/11 12:03:09;;;;;;;7.05;3.78;;;;;;;28.41;29.24;102099.00;5074860;28;20055;-78
2022/08/11 12:05:36;;;;;;;7.32;3.80;;;;;;;28.47;29.08;102098.28;5074455;28;20028;-79
2022/08/11 12:08:37;;;;;;;6.53;3.60;;;;;;;28.49;28.03;102096.25;5074229;28;20025;-78
2022/08/11 12:13:53;;;;;;;6.65;3.97;;;;;;;28.46;28.57;102084.16;5074263;28;20396;-77
2022/08/11 12:16:20;;;;;;;9.02;4.25;;;;;;;28.59;29.42;102083.50;5074118;28;20535;-77
2022/08/11 12:18:49;;;;;;;7.47;3.63;;;;;;;28.67;28.60;102082.59;5074012;28;20032;-75
2022/08/11 12:21:15;;;;;;;7.50;3.80;;;;;;;28.75;29.41;102079.81;5074092;28;20025;-77
2022/08/11 12:29:12;;;;;;;6.55;4.00;;;;;;;28.73;28.54;102079.19;5073981;28;20170;-75
2022/08/11 12:31:39;;;;;;;7.47;3.90;;;;;;;28.75;28.46;102066.53;5073809;28;20111;-76
2022/08/11 12:34:13;;;;;;;5.57;3.83;;;;;;;28.81;28.54;102068.47;5073672;28;20044;-77
2022/08/11 12:36:42;;;;;;;6.50;4.15;;;;;;;28.82;28.28;102067.44;5073767;28;20073;-76
2022/08/11 12:45:26;;;;;;;6.70;4.10;;;;;;;28.83;28.76;102071.75;5073652;28;20039;-75
2022/08/11 12:53:37;;;;;;;6.63;3.75;;;;;;;28.84;29.08;102036.16;4993066;28;20029;-72
2022/08/11 12:58:51;;;;;;;6.88;3.60;;;;;;;28.81;28.58;102042.69;4992076;28;20516;-74
2022/08/11 13:06:50;;;;;;;5.60;3.50;;;;;;;28.79;27.12;102028.72;5005071;28;20524;-76
2022/08/11 13:09:16;;;;;;;5.97;3.50;;;;;;;28.92;27.75;102038.75;5007863;28;20078;-75
2022/08/11 13:14:31;;;;;;;6.40;3.45;;;;;;;28.94;25.98;102031.41;5011548;28;20044;-76
2022/08/11 13:19:43;;;;;;;5.40;3.88;;;;;;;28.97;27.34;102019.56;5011179;28;20524;-75
2022/08/11 13:22:10;;;;;;;6.85;3.70;;;;;;;28.86;27.32;102003.03;5010565;28;20695;-75
2022/08/11 13:24:36;;;;;;;6.57;3.58;;;;;;;28.96;27.67;102015.25;5011185;28;20120;-75
2022/08/11 13:27:02;;;;;;;7.57;3.92;;;;;;;29.01;27.42;102013.69;5048375;28;20040;-76
2022/08/11 13:29:28;;;;;;;8.43;3.85;;;;;;;29.12;27.11;102012.34;5093125;28;20020;-75
2022/08/11 13:31:57;;;;;;;7.60;3.33;;;;;;;29.21;26.43;102013.88;5093218;28;20036;-76
2022/08/11 13:34:25;;;;;;;7.85;4.05;;;;;;;29.29;27.22;102011.06;5092893;28;20051;-75
2022/08/11 13:36:53;;;;;;;6.32;3.75;;;;;;;29.41;26.82;102001.56;5093120;28;20103;-76
2022/08/11 13:39:22;;;;;;;5.97;3.80;;;;;;;29.43;25.13;102006.69;5092730;28;20085;-73
2022/08/11 13:41:48;;;;;;;7.72;3.97;;;;;;;29.43;26.70;102004.84;5092703;28;20078;-75
2022/08/11 13:44:16;;;;;;;9.70;3.88;;;;;;;29.51;27.07;102001.25;5092777;28;20035;-76
2022/08/11 13:46:42;;;;;;;6.63;3.40;;;;;;;29.44;26.78;101984.38;5092788;28;20028;-74
2022/08/11 13:49:09;;;;;;;6.28;3.72;;;;;;;29.53;27.39;101987.75;5092752;28;20027;-74
2022/08/11 13:51:37;;;;;;;5.75;3.47;;;;;;;29.53;26.58;101993.06;5092592;28;20472;-76
2022/08/11 13:54:09;;;;;;;10.55;3.97;;;;;;;29.58;26.14;101987.97;5074616;28;20395;-76
2022/08/11 13:56:38;;;;;;;8.52;3.88;;;;;;;29.50;25.58;101991.63;5092500;28;20376;-76
2022/08/11 13:59:04;;;;;;;7.90;3.55;;;;;;;29.39;25.95;101997.41;5092716;28;20020;-77
2022/08/11 14:01:35;;;;;;;8.57;3.47;;;;;;;29.38;26.69;101990.44;5073881;28;20078;-75
2022/08/11 14:04:13;;;;;;;7.07;3.20;;;;;;;29.42;26.65;101989.06;5092696;28;20035;-76
2022/08/11 14:06:44;;;;;;;7.68;3.92;;;;;;;29.45;25.67;101982.53;5092613;28;20059;-77
2022/08/11 14:09:11;;;;;;;10.82;3.60;;;;;;;29.39;25.42;101981.44;5092614;28;20076;-77
2022/08/11 14:14:32;;;;;;;5.75;3.35;;;;;;;29.30;25.71;101956.84;5092857;28;20047;-77
2022/08/11 14:17:03;;;;;;;5.15;3.53;;;;;;;29.39;25.80;101968.97;5092763;28;20021;-76
2022/08/11 14:19:31;;;;;;;6.57;3.50;;;;;;;29.31;24.79;101963.00;5092273;28;20024;-76
2022/08/11 14:22:06;;;;;;;6.50;3.58;;;;;;;29.39;26.20;101974.28;5092138;28;20110;-76
2022/08/11 14:24:33;;;;;;;6.15;3.60;;;;;;;29.52;25.97;101964.81;5092370;28;20448;-76
2022/08/11 14:26:59;;;;;;;8.85;3.50;;;;;;;29.47;24.87;101956.53;5091990;28;20031;-77
2022/08/11 14:29:27;;;;;;;6.57;3.58;;;;;;;29.57;24.22;101971.19;5092272;28;20111;-75
2022/08/11 14:31:56;;;;;;;7.78;2.97;;;;;;;29.52;23.29;101964.81;5092269;28;20124;-77
2022/08/11 14:34:24;;;;;;;5.85;2.78;;;;;;;29.45;23.50;101966.56;5094946;28;20502;-77
2022/08/11 14:36:58;;;;;;;7.35;3.38;;;;;;;29.53;24.30;101969.13;5096246;28;20016;-77
2022/08/11 14:39:25;;;;;;;6.88;3.45;;;;;;;29.56;23.94;101961.56;5096096;28;20040;-77
2022/08/11 14:47:03;;;;;;;7.90;3.55;;;;;;;29.51;24.08;101958.66;5096241;28;20105;-76
2022/08/11 14:47:50;;;;;;;5.63;3.25;;;;;;;29.48;24.37;101943.06;5095700;28;20047;-75
2022/08/11 14:50:22;;;;;;;6.90;3.30;;;;;;;29.52;24.88;101932.88;5095787;28;20032;-72
2022/08/11 14:53:00;;;;;;;5.88;3.05;;;;;;;29.62;25.10;101954.63;5095760;28;20039;-75
2022/08/11 14:58:16;;;;;;;5.60;3.58;;;;;;;29.50;24.50;101945.53;5095831;28;20031;-75
2022/08/11 15:00:42;;;;;;;6.43;3.40;;;;;;;29.51;24.76;101955.19;5095790;28;20024;-76
2022/08/11 15:03:11;;;;;;;5.80;3.22;;;;;;;29.55;25.31;101941.28;5095818;28;20780;-76
2022/08/11 15:05:55;;;;;;;7.80;3.70;;;;;;;29.58;26.50;101935.56;5095795;28;20032;-77
2022/08/11 15:08:53;;;;;;;8.18;3.58;;;;;;;29.70;26.45;101928.69;5095581;28;20020;-77
2022/08/11 15:13:59;;;;;;;8.80;3.90;;;;;;;29.61;24.63;101940.50;5095412;28;20034;-78
2022/08/11 15:19:12;;;;;;;5.40;3.20;;;;;;;29.59;25.66;101923.88;5095500;28;20042;-74
2022/08/11 15:24:22;;;;;;;8.05;3.65;;;;;;;29.72;24.88;101919.69;5095294;28;20089;-75
2022/08/11 15:37:38;;;;;;;7.25;3.20;;;;;;;29.61;25.37;101897.09;5054509;28;20126;-76
2022/08/11 15:46:09;;;;;;;4.05;3.15;;;;;;;29.62;25.61;101904.88;5053844;28;20306;-77
2022/08/11 15:48:43;;;;;;;8.32;5.18;;;;;;;29.56;25.58;101886.19;5036324;28;20443;-77
2022/08/11 15:51:16;;;;;;;7.25;3.47;;;;;;;29.64;25.90;101894.03;5054959;28;20025;-76
2022/08/11 15:54:07;;;;;;;5.85;3.25;;;;;;;29.65;27.20;101895.69;5054597;28;20104;-76
2022/08/11 15:56:36;;;;;;;6.05;3.53;;;;;;;29.52;26.17;101869.81;5054208;28;20036;-77
2022/08/11 16:04:37;;;;;;;5.97;3.13;;;;;;;29.50;25.53;101895.81;5054536;28;20534;-77
2022/08/11 16:07:10;;;;;;;9.25;3.50;;;;;;;29.51;26.29;101885.97;5054375;28;20040;-77
2022/08/11 16:09:51;;;;;;;7.32;3.55;;;;;;;29.51;26.30;101892.13;5054192;28;20037;-77
2022/08/11 16:12:21;;;;;;;9.88;3.63;;;;;;;29.49;26.61;101888.00;5054103;28;20033;-77
2022/08/11 16:17:50;;;;;;;6.25;3.33;;;;;;;29.43;26.76;101865.63;5054262;28;19977;-76
2022/08/11 16:20:20;;;;;;;8.80;3.45;;;;;;;29.19;26.08;101836.81;5054068;28;20033;-75
2022/08/11 16:22:48;;;;;;;6.10;3.40;;;;;;;29.34;26.87;101862.31;5054071;28;20024;-75
2022/08/11 16:25:20;;;;;;;9.45;3.75;;;;;;;29.43;26.80;101871.78;5053973;28;20097;-76
2022/08/11 16:27:50;;;;;;;5.90;3.20;;;;;;;29.44;27.64;101877.91;5053515;28;20508;-76
2022/08/11 16:30:16;;;;;;;8.13;3.53;;;;;;;29.40;27.27;101866.03;5053702;28;20060;-77
2022/08/11 16:32:44;;;;;;;5.70;3.60;;;;;;;29.33;26.86;101870.47;5053717;28;20648;-77
2022/08/11 16:38:35;;;;;;;7.10;3.60;;;;;;;29.25;27.95;101854.66;4991954;28;20041;-77
2022/08/11 16:41:12;;;;;;;7.25;3.33;;;;;;;29.16;27.88;101854.00;4992036;28;20121;-77